x

Folly Island, Sc (fbis1) Weather Station

6:00am - Mon 28th Jul 2014 All times are EDT. -4 hours from GMT.

  • Wind
    9mph, 13mph gusts
  • Air Temp 81°f
  • Sea Pressure 1012.5mb
  • Folly Island, Sc
  • Folly Island, Sc

More Historic Weather Station data

Upgrade to MSW Pro to gain access to the past 30 days of data for over 8000 Wavebouys and Weather Stations around the globe.

Join Pro

Comparision Forecast

View Surf forecast
   
Mon 07/28 6:00am 9 13 mph 1012.5mb 81f
5:00am 8 11 mph 1012.5mb 82f
4:00am 9 14 mph 1012.2mb 83f
3:00am 7 9 mph 1012.4mb 84f
2:00am 11 16 mph 1012.7mb 85f
1:00am 16 21 mph 1012.6mb 85f
12:00am 16 22 mph 1013.1mb 85f
Sun 07/27 11:00pm 18 22 mph 1013.6mb 85f
10:00pm 20 23 mph 1013.8mb 85f
9:00pm 18 22 mph 1013.5mb 85f
8:00pm 22 25 mph 1013.6mb 85f
7:00pm 21 25 mph 1013.2mb 86f
6:00pm 16 18 mph 1013.3mb 86f
5:00pm 14 16 mph 1013.6mb 87f
4:00pm 15 17 mph 1013.8mb 88f
3:00pm 8 14 mph 1014.8mb 91f
2:00pm 8 14 mph 1015.3mb 91f
1:00pm 14 16 mph 1015.8mb 88f
12:00pm 7 11 mph 1015.9mb 90f
11:00am 8 11 mph 1016.1mb 88f
10:00am 7 10 mph 1016.1mb 86f
9:00am 8 11 mph 1016.4mb 83f
8:00am 5 8 mph 1015.9mb 82f
7:00am 3
mph
1015.4mb 80f
6:00am 6 8 mph 1015mb 80f
5:00am 5 6 mph 1014.9mb 82f
4:00am 6 9 mph 1014.8mb 82f
3:00am 8 11 mph 1015.1mb 83f
2:00am 10 13 mph 1015.5mb 83f
1:00am 11 14 mph 1016.1mb 83f
12:00am 17 20 mph 1016.6mb 83f
Sat 07/26 11:00pm 17 18 mph 1017.1mb 83f
10:00pm 16 18 mph 1016.6mb 83f
9:00pm 14 16 mph 1015.9mb 84f
8:00pm 16 18 mph 1015.6mb 84f
7:00pm 17 18 mph 1015.7mb 84f
6:00pm 13 15 mph 1015.8mb 84f
5:00pm 14 16 mph 1015.7mb 84f
4:00pm 10 13 mph 1016.2mb 83f
3:00pm 8 9 mph 1016.8mb 83f
2:00pm 11 14 mph 1017mb 83f
1:00pm 11 13 mph 1017.3mb 84f
12:00pm 5 7 mph 1017.6mb 85f
11:00am 5 7 mph 1017.6mb 84f
10:00am 9 11 mph 1017.2mb 82f
9:00am 5 8 mph 1017.2mb 80f
8:00am 6 7 mph 1017.1mb 79f
7:00am 6 7 mph 1016.6mb 79f
6:00am 6 7 mph 1016.3mb 78f
5:00am 10 13 mph 1016.2mb 80f
4:00am 8 9 mph 1016.1mb 78f
3:00am 2
mph
1015.7mb 75f
2:00am 6 7 mph 1016.4mb 76f
1:00am 5 7 mph 1016.9mb 76f
12:00am 7 10 mph 1017.3mb 76f
Fri 07/25 11:00pm 2
mph
1017.4mb 76f
10:00pm 3 6 mph 1017.3mb 75f
9:00pm 13 16 mph 1016.7mb 81f
8:00pm 9 13 mph 1016mb 81f
7:00pm 7 8 mph 1015.9mb 78f
6:00pm 13 15 mph 1016.1mb 77f
5:00pm 10 11 mph 1016.4mb 76f
4:00pm 2
mph
1017.3mb -
3:00pm 16 17 mph 1015.9mb 84f
2:00pm 16 17 mph 1015.9mb 85f
1:00pm 9 11 mph 1016.8mb 86f
12:00pm 8 10 mph 1017.2mb 85f
11:00am 5 8 mph 1017.4mb 86f
10:00am 3 7 mph 1017.3mb 83f
9:00am 6 8 mph 1017mb 82f
8:00am 6 8 mph 1016.4mb 80f
7:00am 6 10 mph 1015.9mb 79f
6:00am 5 7 mph 1015.5mb 80f
5:00am 6 8 mph 1015.2mb 80f
4:00am 6 9 mph 1014.6mb 81f
3:00am 6 8 mph 1014.6mb 82f
2:00am 15 18 mph 1014.6mb 84f
1:00am 16 23 mph 1014.8mb 83f
12:00am 15 21 mph 1014.6mb 83f
Thu 07/24 11:00pm 17 22 mph 1014.5mb 84f
10:00pm 21 23 mph 1013.9mb 84f
9:00pm 21 24 mph 1013.6mb 84f
8:00pm 21 23 mph 1012.8mb 84f
7:00pm 22 26 mph 1012.5mb 85f
6:00pm 22 24 mph 1012.6mb 85f
5:00pm 23 25 mph 1012.8mb 85f
4:00pm 22 24 mph 1013.4mb 85f
3:00pm 20 23 mph 1013.9mb 85f
2:00pm 16 18 mph 1014.3mb 86f
1:00pm 18 20 mph 1015.1mb 85f
12:00pm 11 14 mph 1015.4mb 85f